sensor_id;sensor_type;location;lat;lon;timestamp;P1;durP1;ratioP1;P2;durP2;ratioP2
4533;SDS011;2279;51.448;7.306;2024-03-29T00:02:06;229.07;;;71.10;;
4533;SDS011;2279;51.448;7.306;2024-03-29T00:04:32;225.93;;;68.57;;
4533;SDS011;2279;51.448;7.306;2024-03-29T00:06:58;226.17;;;69.20;;
4533;SDS011;2279;51.448;7.306;2024-03-29T00:09:24;226.25;;;68.47;;
4533;SDS011;2279;51.448;7.306;2024-03-29T00:11:50;227.30;;;71.40;;
4533;SDS011;2279;51.448;7.306;2024-03-29T00:14:16;228.77;;;72.97;;
4533;SDS011;2279;51.448;7.306;2024-03-29T00:16:42;226.37;;;69.67;;
4533;SDS011;2279;51.448;7.306;2024-03-29T00:19:08;223.33;;;67.30;;
4533;SDS011;2279;51.448;7.306;2024-03-29T00:21:34;230.07;;;73.13;;
4533;SDS011;2279;51.448;7.306;2024-03-29T00:24:00;223.60;;;65.20;;
4533;SDS011;2279;51.448;7.306;2024-03-29T00:26:26;227.27;;;70.40;;
4533;SDS011;2279;51.448;7.306;2024-03-29T00:28:52;225.32;;;68.40;;
4533;SDS011;2279;51.448;7.306;2024-03-29T00:31:18;226.87;;;69.70;;
4533;SDS011;2279;51.448;7.306;2024-03-29T00:33:44;227.20;;;68.47;;
4533;SDS011;2279;51.448;7.306;2024-03-29T00:36:10;229.20;;;73.70;;
4533;SDS011;2279;51.448;7.306;2024-03-29T00:38:36;228.07;;;72.60;;
4533;SDS011;2279;51.448;7.306;2024-03-29T00:41:02;226.20;;;70.97;;
4533;SDS011;2279;51.448;7.306;2024-03-29T00:43:28;224.80;;;66.30;;
4533;SDS011;2279;51.448;7.306;2024-03-29T00:45:53;226.77;;;69.30;;
4533;SDS011;2279;51.448;7.306;2024-03-29T00:48:19;229.33;;;74.30;;
4533;SDS011;2279;51.448;7.306;2024-03-29T00:50:46;226.30;;;68.13;;
4533;SDS011;2279;51.448;7.306;2024-03-29T00:53:12;225.97;;;69.70;;
4533;SDS011;2279;51.448;7.306;2024-03-29T00:55:38;228.63;;;71.67;;
4533;SDS011;2279;51.448;7.306;2024-03-29T00:58:04;224.77;;;67.67;;
4533;SDS011;2279;51.448;7.306;2024-03-29T01:00:30;224.93;;;68.87;;
4533;SDS011;2279;51.448;7.306;2024-03-29T01:02:55;227.07;;;71.53;;
4533;SDS011;2279;51.448;7.306;2024-03-29T01:05:22;229.93;;;72.40;;
4533;SDS011;2279;51.448;7.306;2024-03-29T01:07:48;228.57;;;73.07;;
4533;SDS011;2279;51.448;7.306;2024-03-29T01:10:14;226.90;;;71.67;;
4533;SDS011;2279;51.448;7.306;2024-03-29T01:12:40;225.73;;;68.10;;
4533;SDS011;2279;51.448;7.306;2024-03-29T01:15:06;232.53;;;73.03;;
4533;SDS011;2279;51.448;7.306;2024-03-29T01:17:32;226.90;;;70.40;;
4533;SDS011;2279;51.448;7.306;2024-03-29T01:19:58;226.43;;;68.40;;
4533;SDS011;2279;51.448;7.306;2024-03-29T01:22:24;225.00;;;68.65;;
4533;SDS011;2279;51.448;7.306;2024-03-29T01:24:50;230.13;;;74.45;;
4533;SDS011;2279;51.448;7.306;2024-03-29T01:27:16;225.57;;;68.50;;
4533;SDS011;2279;51.448;7.306;2024-03-29T01:29:42;225.37;;;67.37;;
4533;SDS011;2279;51.448;7.306;2024-03-29T01:32:08;226.45;;;68.95;;
4533;SDS011;2279;51.448;7.306;2024-03-29T01:34:34;228.53;;;70.77;;
4533;SDS011;2279;51.448;7.306;2024-03-29T01:37:00;229.23;;;73.90;;
4533;SDS011;2279;51.448;7.306;2024-03-29T01:39:26;228.60;;;72.23;;
4533;SDS011;2279;51.448;7.306;2024-03-29T01:41:56;224.45;;;68.85;;
4533;SDS011;2279;51.448;7.306;2024-03-29T01:44:22;227.95;;;71.78;;
4533;SDS011;2279;51.448;7.306;2024-03-29T01:46:48;225.50;;;67.87;;
4533;SDS011;2279;51.448;7.306;2024-03-29T01:49:14;228.27;;;71.90;;
4533;SDS011;2279;51.448;7.306;2024-03-29T01:51:41;225.15;;;69.22;;
4533;SDS011;2279;51.448;7.306;2024-03-29T01:54:08;227.57;;;70.50;;
4533;SDS011;2279;51.448;7.306;2024-03-29T01:56:35;229.77;;;74.07;;
4533;SDS011;2279;51.448;7.306;2024-03-29T01:59:01;228.38;;;72.00;;
4533;SDS011;2279;51.448;7.306;2024-03-29T02:01:29;224.00;;;67.25;;
4533;SDS011;2279;51.448;7.306;2024-03-29T02:03:55;229.85;;;74.43;;
4533;SDS011;2279;51.448;7.306;2024-03-29T02:06:22;227.55;;;70.32;;
4533;SDS011;2279;51.448;7.306;2024-03-29T02:08:52;226.75;;;68.05;;
4533;SDS011;2279;51.448;7.306;2024-03-29T02:11:18;230.52;;;75.82;;
4533;SDS011;2279;51.448;7.306;2024-03-29T02:13:44;226.52;;;69.78;;
4533;SDS011;2279;51.448;7.306;2024-03-29T02:16:10;224.47;;;66.90;;
4533;SDS011;2279;51.448;7.306;2024-03-29T02:18:36;228.07;;;70.47;;
4533;SDS011;2279;51.448;7.306;2024-03-29T02:21:02;229.90;;;74.70;;
4533;SDS011;2279;51.448;7.306;2024-03-29T02:23:29;225.75;;;68.55;;
4533;SDS011;2279;51.448;7.306;2024-03-29T02:25:55;223.93;;;67.35;;
4533;SDS011;2279;51.448;7.306;2024-03-29T02:28:21;223.15;;;65.20;;
4533;SDS011;2279;51.448;7.306;2024-03-29T02:30:48;228.63;;;72.28;;
4533;SDS011;2279;51.448;7.306;2024-03-29T02:33:14;225.95;;;66.70;;
4533;SDS011;2279;51.448;7.306;2024-03-29T02:35:40;225.43;;;67.47;;
4533;SDS011;2279;51.448;7.306;2024-03-29T02:38:06;228.80;;;71.03;;
4533;SDS011;2279;51.448;7.306;2024-03-29T02:40:32;228.43;;;70.37;;
4533;SDS011;2279;51.448;7.306;2024-03-29T02:42:58;228.23;;;70.87;;
4533;SDS011;2279;51.448;7.306;2024-03-29T02:45:24;231.87;;;74.83;;
4533;SDS011;2279;51.448;7.306;2024-03-29T02:47:50;228.13;;;71.37;;
4533;SDS011;2279;51.448;7.306;2024-03-29T02:50:16;226.20;;;66.53;;
4533;SDS011;2279;51.448;7.306;2024-03-29T02:52:42;231.05;;;72.38;;
4533;SDS011;2279;51.448;7.306;2024-03-29T02:55:08;235.77;;;76.88;;
4533;SDS011;2279;51.448;7.306;2024-03-29T02:57:35;227.50;;;68.07;;
4533;SDS011;2279;51.448;7.306;2024-03-29T03:00:03;229.65;;;72.00;;
4533;SDS011;2279;51.448;7.306;2024-03-29T03:02:29;228.95;;;71.13;;
4533;SDS011;2279;51.448;7.306;2024-03-29T03:04:55;231.07;;;73.90;;
4533;SDS011;2279;51.448;7.306;2024-03-29T03:07:21;229.73;;;71.57;;
4533;SDS011;2279;51.448;7.306;2024-03-29T03:10:06;229.13;;;68.85;;
4533;SDS011;2279;51.448;7.306;2024-03-29T03:12:50;229.82;;;70.07;;
4533;SDS011;2279;51.448;7.306;2024-03-29T03:15:19;232.23;;;72.80;;
4533;SDS011;2279;51.448;7.306;2024-03-29T03:17:46;229.60;;;69.45;;
4533;SDS011;2279;51.448;7.306;2024-03-29T03:20:12;234.23;;;76.00;;
4533;SDS011;2279;51.448;7.306;2024-03-29T03:22:40;229.68;;;70.82;;
4533;SDS011;2279;51.448;7.306;2024-03-29T03:25:06;231.95;;;74.18;;
4533;SDS011;2279;51.448;7.306;2024-03-29T03:27:32;229.02;;;69.80;;
4533;SDS011;2279;51.448;7.306;2024-03-29T03:29:58;230.00;;;70.87;;
4533;SDS011;2279;51.448;7.306;2024-03-29T03:32:24;226.97;;;69.40;;
4533;SDS011;2279;51.448;7.306;2024-03-29T03:34:50;231.97;;;73.27;;
4533;SDS011;2279;51.448;7.306;2024-03-29T03:37:16;228.13;;;69.60;;
4533;SDS011;2279;51.448;7.306;2024-03-29T03:39:43;228.33;;;70.07;;
4533;SDS011;2279;51.448;7.306;2024-03-29T03:42:09;228.43;;;72.18;;
4533;SDS011;2279;51.448;7.306;2024-03-29T03:44:35;224.77;;;65.73;;
4533;SDS011;2279;51.448;7.306;2024-03-29T03:47:01;228.90;;;72.23;;
4533;SDS011;2279;51.448;7.306;2024-03-29T03:49:27;229.13;;;72.33;;
4533;SDS011;2279;51.448;7.306;2024-03-29T03:51:53;226.90;;;69.23;;
4533;SDS011;2279;51.448;7.306;2024-03-29T03:54:19;228.30;;;70.47;;
4533;SDS011;2279;51.448;7.306;2024-03-29T03:56:45;226.97;;;69.87;;
4533;SDS011;2279;51.448;7.306;2024-03-29T03:59:11;225.47;;;67.50;;
4533;SDS011;2279;51.448;7.306;2024-03-29T04:01:39;225.90;;;69.90;;
4533;SDS011;2279;51.448;7.306;2024-03-29T04:04:05;227.17;;;67.47;;
4533;SDS011;2279;51.448;7.306;2024-03-29T04:06:33;229.83;;;70.67;;
4533;SDS011;2279;51.448;7.306;2024-03-29T04:08:59;231.25;;;73.60;;
4533;SDS011;2279;51.448;7.306;2024-03-29T04:11:24;225.90;;;68.63;;
4533;SDS011;2279;51.448;7.306;2024-03-29T04:13:52;225.07;;;66.32;;
4533;SDS011;2279;51.448;7.306;2024-03-29T04:16:18;227.57;;;69.28;;
4533;SDS011;2279;51.448;7.306;2024-03-29T04:18:44;225.53;;;68.07;;
4533;SDS011;2279;51.448;7.306;2024-03-29T04:21:10;226.30;;;69.70;;
4533;SDS011;2279;51.448;7.306;2024-03-29T04:23:36;226.13;;;68.63;;
4533;SDS011;2279;51.448;7.306;2024-03-29T04:26:02;227.93;;;71.50;;
4533;SDS011;2279;51.448;7.306;2024-03-29T04:28:28;227.10;;;69.13;;
4533;SDS011;2279;51.448;7.306;2024-03-29T04:30:57;227.93;;;71.57;;
4533;SDS011;2279;51.448;7.306;2024-03-29T04:33:24;223.82;;;66.22;;
4533;SDS011;2279;51.448;7.306;2024-03-29T04:36:02;227.90;;;72.82;;
4533;SDS011;2279;51.448;7.306;2024-03-29T04:38:29;223.52;;;65.68;;
4533;SDS011;2279;51.448;7.306;2024-03-29T04:40:55;225.13;;;67.30;;
4533;SDS011;2279;51.448;7.306;2024-03-29T04:43:23;223.70;;;66.32;;
4533;SDS011;2279;51.448;7.306;2024-03-29T04:45:50;230.02;;;74.25;;
4533;SDS011;2279;51.448;7.306;2024-03-29T04:48:17;227.32;;;69.10;;
4533;SDS011;2279;51.448;7.306;2024-03-29T04:50:42;226.63;;;70.28;;
4533;SDS011;2279;51.448;7.306;2024-03-29T04:53:08;227.53;;;69.87;;
4533;SDS011;2279;51.448;7.306;2024-03-29T04:55:34;228.17;;;69.40;;
4533;SDS011;2279;51.448;7.306;2024-03-29T04:58:01;226.65;;;68.97;;
4533;SDS011;2279;51.448;7.306;2024-03-29T05:00:27;222.98;;;64.40;;
4533;SDS011;2279;51.448;7.306;2024-03-29T05:02:53;227.50;;;68.55;;
4533;SDS011;2279;51.448;7.306;2024-03-29T05:05:19;227.23;;;69.85;;
4533;SDS011;2279;51.448;7.306;2024-03-29T05:07:45;224.70;;;67.23;;
4533;SDS011;2279;51.448;7.306;2024-03-29T05:10:11;222.93;;;65.30;;
4533;SDS011;2279;51.448;7.306;2024-03-29T05:12:37;225.15;;;66.65;;
4533;SDS011;2279;51.448;7.306;2024-03-29T05:15:03;228.27;;;69.10;;
4533;SDS011;2279;51.448;7.306;2024-03-29T05:17:29;226.00;;;67.88;;
4533;SDS011;2279;51.448;7.306;2024-03-29T05:19:55;225.83;;;67.87;;
4533;SDS011;2279;51.448;7.306;2024-03-29T05:22:21;222.82;;;63.95;;
4533;SDS011;2279;51.448;7.306;2024-03-29T05:24:47;226.40;;;67.85;;
4533;SDS011;2279;51.448;7.306;2024-03-29T05:27:13;223.97;;;65.60;;
4533;SDS011;2279;51.448;7.306;2024-03-29T05:29:39;227.57;;;68.50;;
4533;SDS011;2279;51.448;7.306;2024-03-29T05:32:06;217.67;;;59.93;;
4533;SDS011;2279;51.448;7.306;2024-03-29T05:34:32;222.02;;;62.67;;
4533;SDS011;2279;51.448;7.306;2024-03-29T05:36:58;221.57;;;63.87;;
4533;SDS011;2279;51.448;7.306;2024-03-29T05:39:24;221.40;;;65.07;;
4533;SDS011;2279;51.448;7.306;2024-03-29T05:41:50;221.37;;;62.63;;
4533;SDS011;2279;51.448;7.306;2024-03-29T05:44:16;223.37;;;64.67;;
4533;SDS011;2279;51.448;7.306;2024-03-29T05:46:42;227.43;;;66.50;;
4533;SDS011;2279;51.448;7.306;2024-03-29T05:49:08;224.20;;;63.85;;
4533;SDS011;2279;51.448;7.306;2024-03-29T05:51:34;224.07;;;64.50;;
4533;SDS011;2279;51.448;7.306;2024-03-29T05:54:00;222.77;;;62.78;;
4533;SDS011;2279;51.448;7.306;2024-03-29T05:56:28;222.27;;;62.10;;
4533;SDS011;2279;51.448;7.306;2024-03-29T05:58:54;224.57;;;66.00;;
4533;SDS011;2279;51.448;7.306;2024-03-29T06:01:20;221.57;;;62.07;;
4533;SDS011;2279;51.448;7.306;2024-03-29T06:03:48;223.93;;;65.32;;
4533;SDS011;2279;51.448;7.306;2024-03-29T06:06:16;224.13;;;66.05;;
4533;SDS011;2279;51.448;7.306;2024-03-29T06:08:47;224.10;;;64.85;;
4533;SDS011;2279;51.448;7.306;2024-03-29T06:11:12;223.87;;;64.70;;
4533;SDS011;2279;51.448;7.306;2024-03-29T06:13:38;226.03;;;66.47;;
4533;SDS011;2279;51.448;7.306;2024-03-29T06:16:20;221.15;;;61.80;;
4533;SDS011;2279;51.448;7.306;2024-03-29T06:19:05;225.15;;;66.45;;
4533;SDS011;2279;51.448;7.306;2024-03-29T06:21:31;222.45;;;63.92;;
4533;SDS011;2279;51.448;7.306;2024-03-29T06:24:04;221.88;;;64.15;;
4533;SDS011;2279;51.448;7.306;2024-03-29T06:26:30;227.40;;;68.07;;
4533;SDS011;2279;51.448;7.306;2024-03-29T06:28:56;221.67;;;61.63;;
4533;SDS011;2279;51.448;7.306;2024-03-29T06:31:22;230.30;;;72.40;;
4533;SDS011;2279;51.448;7.306;2024-03-29T06:33:48;224.00;;;65.83;;
4533;SDS011;2279;51.448;7.306;2024-03-29T06:36:14;224.63;;;65.37;;
4533;SDS011;2279;51.448;7.306;2024-03-29T06:38:40;224.60;;;65.83;;
4533;SDS011;2279;51.448;7.306;2024-03-29T06:41:06;223.37;;;65.17;;
4533;SDS011;2279;51.448;7.306;2024-03-29T06:43:32;225.10;;;66.30;;
4533;SDS011;2279;51.448;7.306;2024-03-29T06:45:59;226.00;;;68.80;;
4533;SDS011;2279;51.448;7.306;2024-03-29T06:48:27;225.88;;;67.60;;
4533;SDS011;2279;51.448;7.306;2024-03-29T06:50:53;224.67;;;65.60;;
4533;SDS011;2279;51.448;7.306;2024-03-29T06:53:19;224.17;;;62.77;;
4533;SDS011;2279;51.448;7.306;2024-03-29T06:55:45;226.10;;;64.70;;
4533;SDS011;2279;51.448;7.306;2024-03-29T06:58:13;221.52;;;61.35;;
4533;SDS011;2279;51.448;7.306;2024-03-29T07:00:39;225.60;;;65.77;;
4533;SDS011;2279;51.448;7.306;2024-03-29T07:03:04;227.80;;;66.53;;
4533;SDS011;2279;51.448;7.306;2024-03-29T07:05:30;227.97;;;69.87;;
4533;SDS011;2279;51.448;7.306;2024-03-29T07:07:56;226.10;;;66.65;;
4533;SDS011;2279;51.448;7.306;2024-03-29T07:10:24;224.57;;;61.67;;
4533;SDS011;2279;51.448;7.306;2024-03-29T07:12:50;227.48;;;66.18;;
4533;SDS011;2279;51.448;7.306;2024-03-29T07:15:16;223.90;;;63.40;;
4533;SDS011;2279;51.448;7.306;2024-03-29T07:17:42;229.07;;;69.87;;
4533;SDS011;2279;51.448;7.306;2024-03-29T07:20:09;223.73;;;63.83;;
4533;SDS011;2279;51.448;7.306;2024-03-29T07:22:36;227.18;;;68.15;;
4533;SDS011;2279;51.448;7.306;2024-03-29T07:25:02;223.20;;;62.47;;
4533;SDS011;2279;51.448;7.306;2024-03-29T07:27:28;224.57;;;63.30;;
4533;SDS011;2279;51.448;7.306;2024-03-29T07:29:57;228.30;;;69.13;;
4533;SDS011;2279;51.448;7.306;2024-03-29T07:32:25;225.38;;;63.55;;
4533;SDS011;2279;51.448;7.306;2024-03-29T07:34:52;223.50;;;63.67;;
4533;SDS011;2279;51.448;7.306;2024-03-29T07:37:22;231.65;;;71.18;;
4533;SDS011;2279;51.448;7.306;2024-03-29T07:39:49;225.50;;;64.30;;
4533;SDS011;2279;51.448;7.306;2024-03-29T07:42:16;228.68;;;68.93;;
4533;SDS011;2279;51.448;7.306;2024-03-29T07:44:42;228.63;;;68.55;;
4533;SDS011;2279;51.448;7.306;2024-03-29T07:47:08;227.53;;;67.90;;
4533;SDS011;2279;51.448;7.306;2024-03-29T07:49:34;225.85;;;64.70;;
4533;SDS011;2279;51.448;7.306;2024-03-29T07:52:00;228.30;;;66.20;;
4533;SDS011;2279;51.448;7.306;2024-03-29T07:54:30;229.95;;;68.35;;
4533;SDS011;2279;51.448;7.306;2024-03-29T07:56:56;229.03;;;66.80;;
4533;SDS011;2279;51.448;7.306;2024-03-29T07:59:22;228.47;;;66.03;;
4533;SDS011;2279;51.448;7.306;2024-03-29T08:01:48;231.53;;;72.33;;
4533;SDS011;2279;51.448;7.306;2024-03-29T08:04:14;228.77;;;66.30;;
4533;SDS011;2279;51.448;7.306;2024-03-29T08:06:40;232.03;;;70.67;;
4533;SDS011;2279;51.448;7.306;2024-03-29T08:09:06;229.23;;;66.73;;
4533;SDS011;2279;51.448;7.306;2024-03-29T08:11:32;229.35;;;66.35;;
4533;SDS011;2279;51.448;7.306;2024-03-29T08:13:58;230.77;;;69.37;;
4533;SDS011;2279;51.448;7.306;2024-03-29T08:16:24;227.50;;;65.53;;
4533;SDS011;2279;51.448;7.306;2024-03-29T08:18:50;229.90;;;67.50;;
4533;SDS011;2279;51.448;7.306;2024-03-29T08:21:15;229.07;;;66.47;;
4533;SDS011;2279;51.448;7.306;2024-03-29T08:23:42;231.57;;;70.17;;
4533;SDS011;2279;51.448;7.306;2024-03-29T08:26:12;227.55;;;65.13;;
4533;SDS011;2279;51.448;7.306;2024-03-29T08:28:38;227.83;;;64.77;;
4533;SDS011;2279;51.448;7.306;2024-03-29T08:31:05;226.27;;;64.73;;
4533;SDS011;2279;51.448;7.306;2024-03-29T08:33:32;228.95;;;65.82;;
4533;SDS011;2279;51.448;7.306;2024-03-29T08:35:58;228.60;;;65.05;;
4533;SDS011;2279;51.448;7.306;2024-03-29T08:38:24;228.73;;;66.40;;
4533;SDS011;2279;51.448;7.306;2024-03-29T08:40:50;232.37;;;71.20;;
4533;SDS011;2279;51.448;7.306;2024-03-29T08:43:19;230.32;;;66.25;;
4533;SDS011;2279;51.448;7.306;2024-03-29T08:45:45;231.05;;;67.20;;
4533;SDS011;2279;51.448;7.306;2024-03-29T08:48:11;232.23;;;68.90;;
4533;SDS011;2279;51.448;7.306;2024-03-29T08:50:37;234.03;;;73.00;;
4533;SDS011;2279;51.448;7.306;2024-03-29T08:53:03;229.45;;;65.85;;
4533;SDS011;2279;51.448;7.306;2024-03-29T08:55:30;230.30;;;66.65;;
4533;SDS011;2279;51.448;7.306;2024-03-29T08:57:57;229.32;;;67.00;;
4533;SDS011;2279;51.448;7.306;2024-03-29T09:00:24;233.18;;;71.53;;
4533;SDS011;2279;51.448;7.306;2024-03-29T09:02:50;228.50;;;65.72;;
4533;SDS011;2279;51.448;7.306;2024-03-29T09:05:16;230.30;;;64.30;;
4533;SDS011;2279;51.448;7.306;2024-03-29T09:07:42;227.53;;;63.67;;
4533;SDS011;2279;51.448;7.306;2024-03-29T09:10:08;232.20;;;70.03;;
4533;SDS011;2279;51.448;7.306;2024-03-29T09:12:34;230.70;;;66.80;;
4533;SDS011;2279;51.448;7.306;2024-03-29T09:15:00;231.77;;;67.30;;
4533;SDS011;2279;51.448;7.306;2024-03-29T09:17:26;232.25;;;66.90;;
4533;SDS011;2279;51.448;7.306;2024-03-29T09:19:52;230.57;;;66.05;;
4533;SDS011;2279;51.448;7.306;2024-03-29T09:22:18;232.68;;;66.95;;
4533;SDS011;2279;51.448;7.306;2024-03-29T09:24:45;237.60;;;73.47;;
4533;SDS011;2279;51.448;7.306;2024-03-29T09:27:11;233.15;;;69.65;;
4533;SDS011;2279;51.448;7.306;2024-03-29T09:29:37;233.73;;;68.78;;
4533;SDS011;2279;51.448;7.306;2024-03-29T09:32:03;229.80;;;67.07;;
4533;SDS011;2279;51.448;7.306;2024-03-29T09:34:29;232.40;;;68.10;;
4533;SDS011;2279;51.448;7.306;2024-03-29T09:36:58;232.10;;;66.97;;
4533;SDS011;2279;51.448;7.306;2024-03-29T09:39:24;232.07;;;69.43;;
4533;SDS011;2279;51.448;7.306;2024-03-29T09:41:50;236.30;;;72.00;;
4533;SDS011;2279;51.448;7.306;2024-03-29T09:44:16;235.65;;;69.95;;
4533;SDS011;2279;51.448;7.306;2024-03-29T09:46:46;239.40;;;76.45;;
4533;SDS011;2279;51.448;7.306;2024-03-29T09:49:12;234.82;;;70.60;;
4533;SDS011;2279;51.448;7.306;2024-03-29T09:51:39;244.40;;;80.90;;
4533;SDS011;2279;51.448;7.306;2024-03-29T09:54:05;235.43;;;73.83;;
4533;SDS011;2279;51.448;7.306;2024-03-29T09:56:33;242.50;;;79.73;;
4533;SDS011;2279;51.448;7.306;2024-03-29T09:58:59;238.37;;;74.07;;
4533;SDS011;2279;51.448;7.306;2024-03-29T10:01:26;235.47;;;72.03;;
4533;SDS011;2279;51.448;7.306;2024-03-29T10:03:53;241.13;;;78.40;;
4533;SDS011;2279;51.448;7.306;2024-03-29T10:06:19;245.40;;;83.20;;
4533;SDS011;2279;51.448;7.306;2024-03-29T10:08:45;237.83;;;74.07;;
4533;SDS011;2279;51.448;7.306;2024-03-29T10:11:12;239.33;;;76.40;;
4533;SDS011;2279;51.448;7.306;2024-03-29T10:13:41;242.07;;;79.53;;
4533;SDS011;2279;51.448;7.306;2024-03-29T10:16:09;239.27;;;76.97;;
4533;SDS011;2279;51.448;7.306;2024-03-29T10:18:37;240.57;;;78.67;;
4533;SDS011;2279;51.448;7.306;2024-03-29T10:23:29;238.97;;;73.53;;
4533;SDS011;2279;51.448;7.306;2024-03-29T10:25:56;241.43;;;80.30;;
4533;SDS011;2279;51.448;7.306;2024-03-29T10:28:22;237.63;;;77.30;;
4533;SDS011;2279;51.448;7.306;2024-03-29T10:30:48;242.13;;;81.03;;
4533;SDS011;2279;51.448;7.306;2024-03-29T10:33:15;239.80;;;78.97;;
4533;SDS011;2279;51.448;7.306;2024-03-29T10:35:44;240.33;;;77.00;;
4533;SDS011;2279;51.448;7.306;2024-03-29T10:38:10;236.60;;;74.53;;
4533;SDS011;2279;51.448;7.306;2024-03-29T10:40:38;237.25;;;75.63;;
4533;SDS011;2279;51.448;7.306;2024-03-29T10:43:06;241.23;;;80.77;;
4533;SDS011;2279;51.448;7.306;2024-03-29T10:45:37;241.07;;;79.73;;
4533;SDS011;2279;51.448;7.306;2024-03-29T10:48:03;239.60;;;78.13;;
4533;SDS011;2279;51.448;7.306;2024-03-29T10:50:34;238.65;;;77.70;;
4533;SDS011;2279;51.448;7.306;2024-03-29T10:53:01;236.37;;;74.37;;
4533;SDS011;2279;51.448;7.306;2024-03-29T10:55:30;239.37;;;77.80;;
4533;SDS011;2279;51.448;7.306;2024-03-29T10:57:58;243.07;;;81.00;;
4533;SDS011;2279;51.448;7.306;2024-03-29T11:00:25;241.13;;;77.97;;
4533;SDS011;2279;51.448;7.306;2024-03-29T11:03:02;244.27;;;80.77;;
4533;SDS011;2279;51.448;7.306;2024-03-29T11:05:31;245.13;;;83.53;;
4533;SDS011;2279;51.448;7.306;2024-03-29T11:07:58;245.83;;;83.50;;
4533;SDS011;2279;51.448;7.306;2024-03-29T11:10:25;244.77;;;82.57;;
4533;SDS011;2279;51.448;7.306;2024-03-29T11:13:14;249.37;;;87.47;;
4533;SDS011;2279;51.448;7.306;2024-03-29T11:15:44;246.87;;;87.53;;
4533;SDS011;2279;51.448;7.306;2024-03-29T11:18:11;246.37;;;85.60;;
4533;SDS011;2279;51.448;7.306;2024-03-29T11:20:37;246.77;;;85.17;;
4533;SDS011;2279;51.448;7.306;2024-03-29T11:23:09;242.67;;;82.40;;
4533;SDS011;2279;51.448;7.306;2024-03-29T11:25:38;243.87;;;81.73;;
4533;SDS011;2279;51.448;7.306;2024-03-29T11:28:08;242.93;;;80.87;;
4533;SDS011;2279;51.448;7.306;2024-03-29T11:30:47;243.33;;;81.03;;
4533;SDS011;2279;51.448;7.306;2024-03-29T11:33:26;244.67;;;83.37;;
4533;SDS011;2279;51.448;7.306;2024-03-29T11:35:52;243.50;;;80.67;;
4533;SDS011;2279;51.448;7.306;2024-03-29T11:38:18;242.17;;;80.73;;
4533;SDS011;2279;51.448;7.306;2024-03-29T11:43:39;242.93;;;80.47;;
4533;SDS011;2279;51.448;7.306;2024-03-29T11:46:07;241.80;;;77.93;;
4533;SDS011;2279;51.448;7.306;2024-03-29T11:48:33;246.17;;;88.17;;
4533;SDS011;2279;51.448;7.306;2024-03-29T11:51:00;243.47;;;80.87;;
4533;SDS011;2279;51.448;7.306;2024-03-29T11:53:28;245.30;;;81.93;;
4533;SDS011;2279;51.448;7.306;2024-03-29T11:55:54;248.70;;;87.90;;
4533;SDS011;2279;51.448;7.306;2024-03-29T11:58:21;247.33;;;85.17;;
4533;SDS011;2279;51.448;7.306;2024-03-29T12:00:48;252.33;;;90.37;;
4533;SDS011;2279;51.448;7.306;2024-03-29T12:03:17;247.57;;;84.00;;
4533;SDS011;2279;51.448;7.306;2024-03-29T12:05:44;249.37;;;88.60;;
4533;SDS011;2279;51.448;7.306;2024-03-29T12:08:12;251.03;;;91.10;;
4533;SDS011;2279;51.448;7.306;2024-03-29T12:10:39;254.47;;;96.43;;
4533;SDS011;2279;51.448;7.306;2024-03-29T12:13:05;253.67;;;94.37;;
4533;SDS011;2279;51.448;7.306;2024-03-29T12:15:31;252.27;;;94.17;;
4533;SDS011;2279;51.448;7.306;2024-03-29T12:17:57;248.47;;;88.87;;
4533;SDS011;2279;51.448;7.306;2024-03-29T12:20:23;252.67;;;92.77;;
4533;SDS011;2279;51.448;7.306;2024-03-29T12:22:51;246.93;;;84.90;;
4533;SDS011;2279;51.448;7.306;2024-03-29T12:25:17;249.90;;;88.33;;
4533;SDS011;2279;51.448;7.306;2024-03-29T12:27:43;251.20;;;89.80;;
4533;SDS011;2279;51.448;7.306;2024-03-29T12:30:11;247.00;;;86.47;;
4533;SDS011;2279;51.448;7.306;2024-03-29T12:32:38;243.37;;;82.00;;
4533;SDS011;2279;51.448;7.306;2024-03-29T12:35:16;242.57;;;78.63;;
4533;SDS011;2279;51.448;7.306;2024-03-29T12:37:48;245.40;;;82.53;;
4533;SDS011;2279;51.448;7.306;2024-03-29T12:40:18;242.77;;;79.40;;
4533;SDS011;2279;51.448;7.306;2024-03-29T12:42:50;243.60;;;81.73;;
4533;SDS011;2279;51.448;7.306;2024-03-29T12:45:17;243.30;;;81.17;;
4533;SDS011;2279;51.448;7.306;2024-03-29T12:47:44;247.77;;;86.60;;
4533;SDS011;2279;51.448;7.306;2024-03-29T12:50:12;242.83;;;82.23;;
4533;SDS011;2279;51.448;7.306;2024-03-29T12:52:42;244.83;;;81.03;;
4533;SDS011;2279;51.448;7.306;2024-03-29T12:55:08;256.88;;;91.20;;
4533;SDS011;2279;51.448;7.306;2024-03-29T12:57:35;245.27;;;83.57;;
4533;SDS011;2279;51.448;7.306;2024-03-29T13:00:01;243.37;;;83.43;;
4533;SDS011;2279;51.448;7.306;2024-03-29T13:02:28;248.27;;;88.73;;
4533;SDS011;2279;51.448;7.306;2024-03-29T13:04:54;249.17;;;88.30;;
4533;SDS011;2279;51.448;7.306;2024-03-29T13:07:21;243.90;;;83.03;;
4533;SDS011;2279;51.448;7.306;2024-03-29T13:09:47;245.87;;;83.73;;
4533;SDS011;2279;51.448;7.306;2024-03-29T13:12:13;241.80;;;79.20;;
4533;SDS011;2279;51.448;7.306;2024-03-29T13:14:39;246.03;;;84.47;;
4533;SDS011;2279;51.448;7.306;2024-03-29T13:17:05;242.70;;;78.87;;
4533;SDS011;2279;51.448;7.306;2024-03-29T13:19:31;247.70;;;88.20;;
4533;SDS011;2279;51.448;7.306;2024-03-29T13:21:58;240.00;;;77.32;;
4533;SDS011;2279;51.448;7.306;2024-03-29T13:24:24;239.40;;;77.30;;
4533;SDS011;2279;51.448;7.306;2024-03-29T13:26:50;242.77;;;79.00;;
4533;SDS011;2279;51.448;7.306;2024-03-29T13:29:16;240.30;;;76.68;;
4533;SDS011;2279;51.448;7.306;2024-03-29T13:31:42;242.50;;;77.00;;
4533;SDS011;2279;51.448;7.306;2024-03-29T13:34:08;238.13;;;72.77;;
4533;SDS011;2279;51.448;7.306;2024-03-29T13:36:40;242.30;;;78.93;;
4533;SDS011;2279;51.448;7.306;2024-03-29T13:39:09;240.15;;;75.68;;
4533;SDS011;2279;51.448;7.306;2024-03-29T13:41:38;240.40;;;77.32;;
4533;SDS011;2279;51.448;7.306;2024-03-29T13:44:05;239.50;;;76.80;;
4533;SDS011;2279;51.448;7.306;2024-03-29T13:46:32;238.90;;;75.60;;
4533;SDS011;2279;51.448;7.306;2024-03-29T13:48:58;239.57;;;77.47;;
4533;SDS011;2279;51.448;7.306;2024-03-29T13:51:24;235.80;;;72.90;;
4533;SDS011;2279;51.448;7.306;2024-03-29T13:53:50;239.68;;;79.65;;
4533;SDS011;2279;51.448;7.306;2024-03-29T13:56:16;238.67;;;77.43;;
4533;SDS011;2279;51.448;7.306;2024-03-29T13:58:42;237.93;;;74.17;;
4533;SDS011;2279;51.448;7.306;2024-03-29T14:01:08;237.33;;;72.00;;
4533;SDS011;2279;51.448;7.306;2024-03-29T14:03:34;236.75;;;79.20;;
4533;SDS011;2279;51.448;7.306;2024-03-29T14:06:00;235.23;;;76.30;;
4533;SDS011;2279;51.448;7.306;2024-03-29T14:08:26;236.57;;;72.20;;
4533;SDS011;2279;51.448;7.306;2024-03-29T14:10:52;242.67;;;80.50;;
4533;SDS011;2279;51.448;7.306;2024-03-29T14:13:19;238.63;;;73.97;;
4533;SDS011;2279;51.448;7.306;2024-03-29T14:15:45;238.63;;;75.47;;
4533;SDS011;2279;51.448;7.306;2024-03-29T14:18:11;239.13;;;73.57;;
4533;SDS011;2279;51.448;7.306;2024-03-29T14:20:38;237.20;;;74.20;;
4533;SDS011;2279;51.448;7.306;2024-03-29T14:23:04;235.60;;;71.15;;
4533;SDS011;2279;51.448;7.306;2024-03-29T14:25:34;238.52;;;75.35;;
4533;SDS011;2279;51.448;7.306;2024-03-29T14:28:02;240.68;;;78.60;;
4533;SDS011;2279;51.448;7.306;2024-03-29T14:30:28;242.17;;;79.53;;
4533;SDS011;2279;51.448;7.306;2024-03-29T14:32:57;241.90;;;78.55;;
4533;SDS011;2279;51.448;7.306;2024-03-29T14:35:31;241.73;;;76.43;;
4533;SDS011;2279;51.448;7.306;2024-03-29T14:37:57;242.57;;;79.20;;